sensor_id;sensor_type;location;lat;lon;timestamp;temperature;humidity
27561;DHT22;15003;47.476;11.990;2022-08-03T00:00:05;24.70;51.90
27561;DHT22;15003;47.476;11.990;2022-08-03T00:02:32;24.70;52.00
27561;DHT22;15003;47.476;11.990;2022-08-03T00:04:57;24.70;52.00
27561;DHT22;15003;47.476;11.990;2022-08-03T00:07:23;24.70;52.20
27561;DHT22;15003;47.476;11.990;2022-08-03T00:09:49;24.70;52.00
27561;DHT22;15003;47.476;11.990;2022-08-03T00:12:15;24.70;52.10
27561;DHT22;15003;47.476;11.990;2022-08-03T00:14:41;24.60;52.00
27561;DHT22;15003;47.476;11.990;2022-08-03T00:17:07;24.60;52.00
27561;DHT22;15003;47.476;11.990;2022-08-03T00:19:33;24.60;52.10
27561;DHT22;15003;47.476;11.990;2022-08-03T00:21:58;24.60;52.00
27561;DHT22;15003;47.476;11.990;2022-08-03T00:24:24;24.50;52.10
27561;DHT22;15003;47.476;11.990;2022-08-03T00:26:50;24.50;52.20
27561;DHT22;15003;47.476;11.990;2022-08-03T00:29:16;24.50;52.30
27561;DHT22;15003;47.476;11.990;2022-08-03T00:31:42;24.50;52.40
27561;DHT22;15003;47.476;11.990;2022-08-03T00:34:07;24.50;52.40
27561;DHT22;15003;47.476;11.990;2022-08-03T00:36:33;24.40;52.20
27561;DHT22;15003;47.476;11.990;2022-08-03T00:38:59;24.40;52.20
27561;DHT22;15003;47.476;11.990;2022-08-03T00:41:25;24.40;52.20
27561;DHT22;15003;47.476;11.990;2022-08-03T00:43:51;24.40;52.20
27561;DHT22;15003;47.476;11.990;2022-08-03T00:46:16;24.30;52.40
27561;DHT22;15003;47.476;11.990;2022-08-03T00:48:42;24.30;52.40
27561;DHT22;15003;47.476;11.990;2022-08-03T00:51:08;24.30;52.50
27561;DHT22;15003;47.476;11.990;2022-08-03T00:53:35;24.20;52.50
27561;DHT22;15003;47.476;11.990;2022-08-03T00:56:01;24.20;52.50
27561;DHT22;15003;47.476;11.990;2022-08-03T00:58:27;24.20;52.60
27561;DHT22;15003;47.476;11.990;2022-08-03T01:00:53;24.10;52.70
27561;DHT22;15003;47.476;11.990;2022-08-03T01:03:19;24.10;52.80
27561;DHT22;15003;47.476;11.990;2022-08-03T01:08:32;24.10;52.90
27561;DHT22;15003;47.476;11.990;2022-08-03T01:14:31;24.10;53.30
27561;DHT22;15003;47.476;11.990;2022-08-03T01:22:44;24.00;52.90
27561;DHT22;15003;47.476;11.990;2022-08-03T01:31:33;23.90;52.90
27561;DHT22;15003;47.476;11.990;2022-08-03T01:34:11;23.90;53.00
27561;DHT22;15003;47.476;11.990;2022-08-03T01:36:43;23.80;52.80
27561;DHT22;15003;47.476;11.990;2022-08-03T01:39:15;23.80;53.00
27561;DHT22;15003;47.476;11.990;2022-08-03T01:41:47;23.80;52.90
27561;DHT22;15003;47.476;11.990;2022-08-03T01:44:15;23.80;53.00
27561;DHT22;15003;47.476;11.990;2022-08-03T01:46:42;23.70;53.10
27561;DHT22;15003;47.476;11.990;2022-08-03T01:49:11;23.70;53.20
27561;DHT22;15003;47.476;11.990;2022-08-03T01:51:38;23.70;53.30
27561;DHT22;15003;47.476;11.990;2022-08-03T01:54:08;23.70;53.30
27561;DHT22;15003;47.476;11.990;2022-08-03T01:56:36;23.60;53.80
27561;DHT22;15003;47.476;11.990;2022-08-03T01:59:03;23.70;53.20
27561;DHT22;15003;47.476;11.990;2022-08-03T02:01:31;23.60;53.10
27561;DHT22;15003;47.476;11.990;2022-08-03T02:03:58;23.60;53.10
27561;DHT22;15003;47.476;11.990;2022-08-03T02:06:25;23.60;53.20
27561;DHT22;15003;47.476;11.990;2022-08-03T02:08:53;23.60;53.30
27561;DHT22;15003;47.476;11.990;2022-08-03T02:11:19;23.50;53.40
27561;DHT22;15003;47.476;11.990;2022-08-03T02:13:47;23.50;53.40
27561;DHT22;15003;47.476;11.990;2022-08-03T02:16:13;23.60;53.50
27561;DHT22;15003;47.476;11.990;2022-08-03T02:18:40;23.50;53.50
27561;DHT22;15003;47.476;11.990;2022-08-03T02:21:08;23.50;53.40
27561;DHT22;15003;47.476;11.990;2022-08-03T02:23:36;23.50;53.40
27561;DHT22;15003;47.476;11.990;2022-08-03T02:26:05;23.50;53.50
27561;DHT22;15003;47.476;11.990;2022-08-03T02:28:37;23.40;53.60
27561;DHT22;15003;47.476;11.990;2022-08-03T02:31:14;23.40;53.60
27561;DHT22;15003;47.476;11.990;2022-08-03T02:33:50;23.40;53.70
27561;DHT22;15003;47.476;11.990;2022-08-03T02:36:24;23.40;53.80
27561;DHT22;15003;47.476;11.990;2022-08-03T02:38:54;23.40;53.90
27561;DHT22;15003;47.476;11.990;2022-08-03T02:41:26;23.30;53.70
27561;DHT22;15003;47.476;11.990;2022-08-03T02:43:56;23.40;53.70
27561;DHT22;15003;47.476;11.990;2022-08-03T02:46:32;23.30;53.60
27561;DHT22;15003;47.476;11.990;2022-08-03T02:49:00;23.30;53.90
27561;DHT22;15003;47.476;11.990;2022-08-03T02:51:29;23.30;53.70
27561;DHT22;15003;47.476;11.990;2022-08-03T02:53:59;23.30;53.70
27561;DHT22;15003;47.476;11.990;2022-08-03T02:56:27;23.20;53.60
27561;DHT22;15003;47.476;11.990;2022-08-03T02:58:55;23.20;53.70
27561;DHT22;15003;47.476;11.990;2022-08-03T03:01:23;23.20;53.70
27561;DHT22;15003;47.476;11.990;2022-08-03T03:03:51;23.20;53.80
27561;DHT22;15003;47.476;11.990;2022-08-03T03:06:18;23.20;53.80
27561;DHT22;15003;47.476;11.990;2022-08-03T03:08:46;23.10;53.70
27561;DHT22;15003;47.476;11.990;2022-08-03T03:11:13;23.10;53.60
27561;DHT22;15003;47.476;11.990;2022-08-03T03:13:42;23.10;53.60
27561;DHT22;15003;47.476;11.990;2022-08-03T03:16:09;23.00;53.70
27561;DHT22;15003;47.476;11.990;2022-08-03T03:18:37;23.00;54.00
27561;DHT22;15003;47.476;11.990;2022-08-03T03:21:04;23.00;53.80
27561;DHT22;15003;47.476;11.990;2022-08-03T03:23:35;23.00;53.70
27561;DHT22;15003;47.476;11.990;2022-08-03T03:26:03;22.90;53.80
27561;DHT22;15003;47.476;11.990;2022-08-03T03:28:29;22.90;53.80
27561;DHT22;15003;47.476;11.990;2022-08-03T03:30:57;22.80;53.90
27561;DHT22;15003;47.476;11.990;2022-08-03T03:33:23;22.80;53.90
27561;DHT22;15003;47.476;11.990;2022-08-03T03:35:50;22.80;54.10
27561;DHT22;15003;47.476;11.990;2022-08-03T03:38:16;22.70;54.10
27561;DHT22;15003;47.476;11.990;2022-08-03T03:40:43;22.70;54.30
27561;DHT22;15003;47.476;11.990;2022-08-03T03:43:10;22.70;54.30
27561;DHT22;15003;47.476;11.990;2022-08-03T03:45:37;22.70;54.40
27561;DHT22;15003;47.476;11.990;2022-08-03T03:48:06;22.70;54.40
27561;DHT22;15003;47.476;11.990;2022-08-03T03:50:34;22.70;54.30
27561;DHT22;15003;47.476;11.990;2022-08-03T03:53:01;22.70;54.40
27561;DHT22;15003;47.476;11.990;2022-08-03T03:55:28;22.70;54.30
27561;DHT22;15003;47.476;11.990;2022-08-03T03:57:54;22.60;54.50
27561;DHT22;15003;47.476;11.990;2022-08-03T04:00:20;22.60;54.60
27561;DHT22;15003;47.476;11.990;2022-08-03T04:02:46;22.60;54.40
27561;DHT22;15003;47.476;11.990;2022-08-03T04:05:13;22.60;54.40
27561;DHT22;15003;47.476;11.990;2022-08-03T04:07:53;22.60;54.60
27561;DHT22;15003;47.476;11.990;2022-08-03T04:10:26;22.60;54.80
27561;DHT22;15003;47.476;11.990;2022-08-03T04:12:53;22.50;54.50
27561;DHT22;15003;47.476;11.990;2022-08-03T04:15:22;22.50;54.50
27561;DHT22;15003;47.476;11.990;2022-08-03T04:17:50;22.50;54.70
27561;DHT22;15003;47.476;11.990;2022-08-03T04:20:19;22.50;54.70
27561;DHT22;15003;47.476;11.990;2022-08-03T04:22:48;22.50;54.80
27561;DHT22;15003;47.476;11.990;2022-08-03T04:25:17;22.50;54.80
27561;DHT22;15003;47.476;11.990;2022-08-03T04:27:45;22.50;54.80
27561;DHT22;15003;47.476;11.990;2022-08-03T04:30:12;22.40;54.70
27561;DHT22;15003;47.476;11.990;2022-08-03T04:32:39;22.40;54.90
27561;DHT22;15003;47.476;11.990;2022-08-03T04:35:06;22.40;55.00
27561;DHT22;15003;47.476;11.990;2022-08-03T04:37:41;22.40;54.90
27561;DHT22;15003;47.476;11.990;2022-08-03T04:40:12;22.40;55.00
27561;DHT22;15003;47.476;11.990;2022-08-03T04:42:39;22.30;55.10
27561;DHT22;15003;47.476;11.990;2022-08-03T04:45:10;22.30;55.30
27561;DHT22;15003;47.476;11.990;2022-08-03T04:47:37;22.30;55.50
27561;DHT22;15003;47.476;11.990;2022-08-03T04:50:06;22.30;55.60
27561;DHT22;15003;47.476;11.990;2022-08-03T04:52:33;22.30;55.70
27561;DHT22;15003;47.476;11.990;2022-08-03T04:54:59;22.40;55.60
27561;DHT22;15003;47.476;11.990;2022-08-03T04:57:25;22.40;55.60
27561;DHT22;15003;47.476;11.990;2022-08-03T04:59:52;22.40;55.70
27561;DHT22;15003;47.476;11.990;2022-08-03T05:02:21;22.40;55.90
27561;DHT22;15003;47.476;11.990;2022-08-03T05:04:47;22.50;56.00
27561;DHT22;15003;47.476;11.990;2022-08-03T05:07:14;22.50;56.00
27561;DHT22;15003;47.476;11.990;2022-08-03T05:09:40;22.50;56.00
27561;DHT22;15003;47.476;11.990;2022-08-03T05:12:07;22.60;55.90
27561;DHT22;15003;47.476;11.990;2022-08-03T05:14:33;22.70;55.80
27561;DHT22;15003;47.476;11.990;2022-08-03T05:16:59;22.70;55.60
27561;DHT22;15003;47.476;11.990;2022-08-03T05:19:25;22.80;55.50
27561;DHT22;15003;47.476;11.990;2022-08-03T05:21:51;22.80;55.50
27561;DHT22;15003;47.476;11.990;2022-08-03T05:24:17;22.80;55.50
27561;DHT22;15003;47.476;11.990;2022-08-03T05:26:43;22.90;55.50
27561;DHT22;15003;47.476;11.990;2022-08-03T05:29:08;22.90;55.40
27561;DHT22;15003;47.476;11.990;2022-08-03T05:31:34;23.00;55.40
27561;DHT22;15003;47.476;11.990;2022-08-03T05:34:00;23.00;55.50
27561;DHT22;15003;47.476;11.990;2022-08-03T05:36:26;23.10;55.40
27561;DHT22;15003;47.476;11.990;2022-08-03T05:38:52;23.10;55.10
27561;DHT22;15003;47.476;11.990;2022-08-03T05:41:17;23.10;55.00
27561;DHT22;15003;47.476;11.990;2022-08-03T05:43:43;23.20;55.00
27561;DHT22;15003;47.476;11.990;2022-08-03T05:46:10;23.20;55.00
27561;DHT22;15003;47.476;11.990;2022-08-03T05:48:35;23.20;55.10
27561;DHT22;15003;47.476;11.990;2022-08-03T05:51:01;23.20;55.20
27561;DHT22;15003;47.476;11.990;2022-08-03T05:53:27;23.20;55.40
27561;DHT22;15003;47.476;11.990;2022-08-03T05:55:54;23.30;55.40
27561;DHT22;15003;47.476;11.990;2022-08-03T05:58:20;23.30;55.10
27561;DHT22;15003;47.476;11.990;2022-08-03T06:00:45;23.40;54.90
27561;DHT22;15003;47.476;11.990;2022-08-03T06:03:11;23.40;54.70
27561;DHT22;15003;47.476;11.990;2022-08-03T06:05:37;23.50;54.60
27561;DHT22;15003;47.476;11.990;2022-08-03T06:08:03;23.50;54.60
27561;DHT22;15003;47.476;11.990;2022-08-03T06:10:29;23.60;54.50
27561;DHT22;15003;47.476;11.990;2022-08-03T06:12:54;23.60;54.50
27561;DHT22;15003;47.476;11.990;2022-08-03T06:15:20;23.60;54.50
27561;DHT22;15003;47.476;11.990;2022-08-03T06:17:50;23.70;54.60
27561;DHT22;15003;47.476;11.990;2022-08-03T06:20:17;23.70;54.40
27561;DHT22;15003;47.476;11.990;2022-08-03T06:22:46;23.80;54.40
27561;DHT22;15003;47.476;11.990;2022-08-03T06:25:12;23.80;54.40
27561;DHT22;15003;47.476;11.990;2022-08-03T06:27:38;23.80;54.60
27561;DHT22;15003;47.476;11.990;2022-08-03T06:30:08;23.90;54.30
27561;DHT22;15003;47.476;11.990;2022-08-03T06:32:35;23.90;54.10
27561;DHT22;15003;47.476;11.990;2022-08-03T06:35:02;24.00;54.10
27561;DHT22;15003;47.476;11.990;2022-08-03T06:37:28;24.10;54.10
27561;DHT22;15003;47.476;11.990;2022-08-03T06:39:54;24.10;53.70
27561;DHT22;15003;47.476;11.990;2022-08-03T06:42:20;24.10;53.80
27561;DHT22;15003;47.476;11.990;2022-08-03T06:44:46;24.20;53.90
27561;DHT22;15003;47.476;11.990;2022-08-03T06:47:12;24.20;53.80
27561;DHT22;15003;47.476;11.990;2022-08-03T06:49:38;24.20;53.80
27561;DHT22;15003;47.476;11.990;2022-08-03T06:52:03;24.30;53.80
27561;DHT22;15003;47.476;11.990;2022-08-03T06:54:29;24.30;53.50
27561;DHT22;15003;47.476;11.990;2022-08-03T06:56:55;24.30;53.30
27561;DHT22;15003;47.476;11.990;2022-08-03T06:59:21;24.30;53.40
27561;DHT22;15003;47.476;11.990;2022-08-03T07:01:47;24.40;53.50
27561;DHT22;15003;47.476;11.990;2022-08-03T07:04:12;24.40;53.60
27561;DHT22;15003;47.476;11.990;2022-08-03T07:06:38;24.40;53.60
27561;DHT22;15003;47.476;11.990;2022-08-03T07:09:04;24.50;53.60
27561;DHT22;15003;47.476;11.990;2022-08-03T07:11:30;24.50;53.50
27561;DHT22;15003;47.476;11.990;2022-08-03T07:13:56;24.60;53.40
27561;DHT22;15003;47.476;11.990;2022-08-03T07:16:22;24.60;53.30
27561;DHT22;15003;47.476;11.990;2022-08-03T07:18:48;24.70;53.10
27561;DHT22;15003;47.476;11.990;2022-08-03T07:21:14;24.70;53.10
27561;DHT22;15003;47.476;11.990;2022-08-03T07:23:40;24.80;53.20
27561;DHT22;15003;47.476;11.990;2022-08-03T07:26:06;24.80;53.00
27561;DHT22;15003;47.476;11.990;2022-08-03T07:28:32;24.90;52.90
27561;DHT22;15003;47.476;11.990;2022-08-03T07:30:58;24.90;52.90
27561;DHT22;15003;47.476;11.990;2022-08-03T07:33:24;25.00;52.90
27561;DHT22;15003;47.476;11.990;2022-08-03T07:35:50;25.00;52.80
27561;DHT22;15003;47.476;11.990;2022-08-03T07:38:15;25.00;52.70
27561;DHT22;15003;47.476;11.990;2022-08-03T07:40:41;25.10;52.60
27561;DHT22;15003;47.476;11.990;2022-08-03T07:43:07;25.20;52.40
27561;DHT22;15003;47.476;11.990;2022-08-03T07:45:33;25.20;52.40
27561;DHT22;15003;47.476;11.990;2022-08-03T07:47:59;25.30;52.40
27561;DHT22;15003;47.476;11.990;2022-08-03T07:50:25;25.30;52.10
27561;DHT22;15003;47.476;11.990;2022-08-03T07:52:51;25.40;52.00
27561;DHT22;15003;47.476;11.990;2022-08-03T07:55:19;25.40;52.00
27561;DHT22;15003;47.476;11.990;2022-08-03T07:57:46;25.50;52.00
27561;DHT22;15003;47.476;11.990;2022-08-03T08:00:17;25.60;51.90
27561;DHT22;15003;47.476;11.990;2022-08-03T08:02:43;25.70;51.70
27561;DHT22;15003;47.476;11.990;2022-08-03T08:05:10;25.70;51.90
27561;DHT22;15003;47.476;11.990;2022-08-03T08:07:36;25.80;51.30
27561;DHT22;15003;47.476;11.990;2022-08-03T08:10:05;25.90;51.50
27561;DHT22;15003;47.476;11.990;2022-08-03T08:12:31;26.00;51.30
27561;DHT22;15003;47.476;11.990;2022-08-03T08:14:57;26.10;51.30
27561;DHT22;15003;47.476;11.990;2022-08-03T08:17:23;26.10;50.90
27561;DHT22;15003;47.476;11.990;2022-08-03T08:19:49;26.20;51.00
27561;DHT22;15003;47.476;11.990;2022-08-03T08:22:14;26.30;50.50
27561;DHT22;15003;47.476;11.990;2022-08-03T08:24:40;26.40;50.30
27561;DHT22;15003;47.476;11.990;2022-08-03T08:27:06;26.50;50.30
27561;DHT22;15003;47.476;11.990;2022-08-03T08:29:32;26.60;49.90
27561;DHT22;15003;47.476;11.990;2022-08-03T08:31:57;26.70;50.00
27561;DHT22;15003;47.476;11.990;2022-08-03T08:34:23;26.70;49.90
27561;DHT22;15003;47.476;11.990;2022-08-03T08:36:49;26.80;49.10
27561;DHT22;15003;47.476;11.990;2022-08-03T08:39:14;26.90;49.00
27561;DHT22;15003;47.476;11.990;2022-08-03T08:41:40;27.00;48.90
27561;DHT22;15003;47.476;11.990;2022-08-03T08:44:06;27.20;49.10
27561;DHT22;15003;47.476;11.990;2022-08-03T08:46:33;27.30;48.60
27561;DHT22;15003;47.476;11.990;2022-08-03T08:48:59;27.50;48.20
27561;DHT22;15003;47.476;11.990;2022-08-03T08:51:33;27.60;48.10
27561;DHT22;15003;47.476;11.990;2022-08-03T08:54:01;27.70;47.10
27561;DHT22;15003;47.476;11.990;2022-08-03T08:56:27;27.90;47.70
27561;DHT22;15003;47.476;11.990;2022-08-03T08:58:58;28.00;48.00
27561;DHT22;15003;47.476;11.990;2022-08-03T09:01:26;28.20;46.80
27561;DHT22;15003;47.476;11.990;2022-08-03T09:03:52;28.30;46.90
27561;DHT22;15003;47.476;11.990;2022-08-03T09:06:19;28.50;46.70
27561;DHT22;15003;47.476;11.990;2022-08-03T09:08:46;28.60;46.80
27561;DHT22;15003;47.476;11.990;2022-08-03T09:11:11;28.80;45.70
27561;DHT22;15003;47.476;11.990;2022-08-03T09:13:37;28.90;45.60
27561;DHT22;15003;47.476;11.990;2022-08-03T09:16:20;29.00;45.30
27561;DHT22;15003;47.476;11.990;2022-08-03T09:18:55;29.20;44.60
27561;DHT22;15003;47.476;11.990;2022-08-03T09:21:38;29.20;46.10
27561;DHT22;15003;47.476;11.990;2022-08-03T09:24:05;29.40;45.70
27561;DHT22;15003;47.476;11.990;2022-08-03T09:26:33;29.50;45.60
27561;DHT22;15003;47.476;11.990;2022-08-03T09:29:05;29.60;44.70
27561;DHT22;15003;47.476;11.990;2022-08-03T09:31:44;29.70;44.90
27561;DHT22;15003;47.476;11.990;2022-08-03T09:34:12;29.90;44.90
27561;DHT22;15003;47.476;11.990;2022-08-03T09:39:17;30.10;44.80
27561;DHT22;15003;47.476;11.990;2022-08-03T09:41:46;30.20;44.60
27561;DHT22;15003;47.476;11.990;2022-08-03T09:44:14;30.40;44.40
27561;DHT22;15003;47.476;11.990;2022-08-03T09:46:50;30.50;44.20
27561;DHT22;15003;47.476;11.990;2022-08-03T09:49:19;30.70;43.70
27561;DHT22;15003;47.476;11.990;2022-08-03T09:51:45;30.80;43.90
27561;DHT22;15003;47.476;11.990;2022-08-03T09:54:11;30.90;43.20
27561;DHT22;15003;47.476;11.990;2022-08-03T09:56:42;31.00;43.10
27561;DHT22;15003;47.476;11.990;2022-08-03T09:59:13;31.20;41.90
27561;DHT22;15003;47.476;11.990;2022-08-03T10:01:48;31.30;42.50
27561;DHT22;15003;47.476;11.990;2022-08-03T10:04:15;31.40;42.40
27561;DHT22;15003;47.476;11.990;2022-08-03T10:06:43;31.50;41.80
27561;DHT22;15003;47.476;11.990;2022-08-03T10:09:14;31.70;41.90
27561;DHT22;15003;47.476;11.990;2022-08-03T10:11:42;31.80;41.80
27561;DHT22;15003;47.476;11.990;2022-08-03T10:14:10;31.90;41.50
27561;DHT22;15003;47.476;11.990;2022-08-03T10:16:39;32.00;41.70
27561;DHT22;15003;47.476;11.990;2022-08-03T10:19:07;32.20;41.30
27561;DHT22;15003;47.476;11.990;2022-08-03T10:21:34;32.20;40.80
27561;DHT22;15003;47.476;11.990;2022-08-03T10:24:05;32.40;40.50
27561;DHT22;15003;47.476;11.990;2022-08-03T10:26:35;32.50;39.60
27561;DHT22;15003;47.476;11.990;2022-08-03T10:29:04;32.60;40.20
27561;DHT22;15003;47.476;11.990;2022-08-03T10:31:37;32.70;39.80
27561;DHT22;15003;47.476;11.990;2022-08-03T10:34:08;32.80;40.30
27561;DHT22;15003;47.476;11.990;2022-08-03T10:36:37;32.90;39.70
27561;DHT22;15003;47.476;11.990;2022-08-03T10:39:05;33.00;39.80
27561;DHT22;15003;47.476;11.990;2022-08-03T10:41:35;33.10;39.60
27561;DHT22;15003;47.476;11.990;2022-08-03T10:44:05;33.20;38.80
27561;DHT22;15003;47.476;11.990;2022-08-03T10:46:35;33.40;38.70
27561;DHT22;15003;47.476;11.990;2022-08-03T10:49:04;33.50;38.50
27561;DHT22;15003;47.476;11.990;2022-08-03T10:51:31;33.60;38.40
27561;DHT22;15003;47.476;11.990;2022-08-03T10:53:58;33.70;38.30
27561;DHT22;15003;47.476;11.990;2022-08-03T10:58:56;33.90;38.20
27561;DHT22;15003;47.476;11.990;2022-08-03T11:01:54;34.00;38.60
27561;DHT22;15003;47.476;11.990;2022-08-03T11:04:22;34.10;38.00
27561;DHT22;15003;47.476;11.990;2022-08-03T11:07:21;34.20;38.10
27561;DHT22;15003;47.476;11.990;2022-08-03T11:09:49;34.40;37.80
27561;DHT22;15003;47.476;11.990;2022-08-03T11:12:30;34.50;38.00
27561;DHT22;15003;47.476;11.990;2022-08-03T11:15:04;34.60;37.30
27561;DHT22;15003;47.476;11.990;2022-08-03T11:17:33;34.60;37.30
27561;DHT22;15003;47.476;11.990;2022-08-03T11:19:59;34.70;37.10
27561;DHT22;15003;47.476;11.990;2022-08-03T11:22:25;34.80;37.10
27561;DHT22;15003;47.476;11.990;2022-08-03T11:25:13;34.90;36.70
27561;DHT22;15003;47.476;11.990;2022-08-03T11:27:39;34.90;36.50
27561;DHT22;15003;47.476;11.990;2022-08-03T11:30:22;35.00;36.30
27561;DHT22;15003;47.476;11.990;2022-08-03T11:35:16;35.20;35.90
27561;DHT22;15003;47.476;11.990;2022-08-03T11:40:50;35.30;35.30
27561;DHT22;15003;47.476;11.990;2022-08-03T11:46:15;35.40;33.90
27561;DHT22;15003;47.476;11.990;2022-08-03T11:48:46;35.50;34.00
27561;DHT22;15003;47.476;11.990;2022-08-03T11:53:57;35.60;34.50
27561;DHT22;15003;47.476;11.990;2022-08-03T11:56:24;35.60;34.10
27561;DHT22;15003;47.476;11.990;2022-08-03T11:58:52;35.70;34.50
27561;DHT22;15003;47.476;11.990;2022-08-03T12:01:20;35.80;34.20
27561;DHT22;15003;47.476;11.990;2022-08-03T12:03:48;35.90;34.10
27561;DHT22;15003;47.476;11.990;2022-08-03T12:06:16;35.90;33.70
27561;DHT22;15003;47.476;11.990;2022-08-03T12:08:44;36.00;33.60
27561;DHT22;15003;47.476;11.990;2022-08-03T12:11:12;36.10;33.60
27561;DHT22;15003;47.476;11.990;2022-08-03T12:13:41;36.20;32.50
27561;DHT22;15003;47.476;11.990;2022-08-03T12:16:09;36.20;32.20
27561;DHT22;15003;47.476;11.990;2022-08-03T12:18:36;36.30;31.50
27561;DHT22;15003;47.476;11.990;2022-08-03T12:21:04;36.30;31.30
27561;DHT22;15003;47.476;11.990;2022-08-03T12:23:31;36.40;31.20
27561;DHT22;15003;47.476;11.990;2022-08-03T12:26:05;36.40;32.10
27561;DHT22;15003;47.476;11.990;2022-08-03T12:28:33;36.50;32.20
27561;DHT22;15003;47.476;11.990;2022-08-03T12:31:06;36.50;32.20
27561;DHT22;15003;47.476;11.990;2022-08-03T12:33:53;36.70;29.50
27561;DHT22;15003;47.476;11.990;2022-08-03T12:36:30;36.70;29.40
27561;DHT22;15003;47.476;11.990;2022-08-03T12:39:07;36.70;30.00
27561;DHT22;15003;47.476;11.990;2022-08-03T12:41:36;36.70;30.20
27561;DHT22;15003;47.476;11.990;2022-08-03T12:44:05;36.70;30.00
27561;DHT22;15003;47.476;11.990;2022-08-03T12:46:36;36.80;31.00
27561;DHT22;15003;47.476;11.990;2022-08-03T12:54:09;36.90;31.20
27561;DHT22;15003;47.476;11.990;2022-08-03T12:57:04;37.00;30.60
27561;DHT22;15003;47.476;11.990;2022-08-03T13:02:00;37.00;31.10
27561;DHT22;15003;47.476;11.990;2022-08-03T13:04:28;37.10;30.00
27561;DHT22;15003;47.476;11.990;2022-08-03T13:07:06;37.10;30.40
27561;DHT22;15003;47.476;11.990;2022-08-03T13:12:21;37.20;30.80
27561;DHT22;15003;47.476;11.990;2022-08-03T13:14:49;37.20;30.00
27561;DHT22;15003;47.476;11.990;2022-08-03T13:17:16;37.30;29.90
27561;DHT22;15003;47.476;11.990;2022-08-03T13:19:43;37.40;30.20
27561;DHT22;15003;47.476;11.990;2022-08-03T13:22:18;37.40;29.20
27561;DHT22;15003;47.476;11.990;2022-08-03T13:24:50;37.40;30.00
27561;DHT22;15003;47.476;11.990;2022-08-03T13:27:18;37.50;30.00
27561;DHT22;15003;47.476;11.990;2022-08-03T13:29:44;37.50;28.80
27561;DHT22;15003;47.476;11.990;2022-08-03T13:32:10;37.50;28.80
27561;DHT22;15003;47.476;11.990;2022-08-03T13:34:36;37.50;28.60
27561;DHT22;15003;47.476;11.990;2022-08-03T13:37:02;37.50;29.40
27561;DHT22;15003;47.476;11.990;2022-08-03T13:39:28;37.50;29.10
27561;DHT22;15003;47.476;11.990;2022-08-03T13:41:54;37.40;29.20
27561;DHT22;15003;47.476;11.990;2022-08-03T13:44:20;37.40;29.50
27561;DHT22;15003;47.476;11.990;2022-08-03T13:46:46;37.40;29.30
27561;DHT22;15003;47.476;11.990;2022-08-03T13:49:12;37.40;29.40
27561;DHT22;15003;47.476;11.990;2022-08-03T13:51:38;37.40;29.60
27561;DHT22;15003;47.476;11.990;2022-08-03T13:54:04;37.50;29.40
27561;DHT22;15003;47.476;11.990;2022-08-03T13:56:30;37.50;29.10
27561;DHT22;15003;47.476;11.990;2022-08-03T13:58:57;37.50;29.00
27561;DHT22;15003;47.476;11.990;2022-08-03T14:01:24;37.50;28.10
27561;DHT22;15003;47.476;11.990;2022-08-03T14:03:50;37.50;28.30
27561;DHT22;15003;47.476;11.990;2022-08-03T14:06:17;37.50;28.40
27561;DHT22;15003;47.476;11.990;2022-08-03T14:08:43;37.50;28.00
27561;DHT22;15003;47.476;11.990;2022-08-03T14:11:09;37.40;28.20
27561;DHT22;15003;47.476;11.990;2022-08-03T14:13:35;37.40;28.00
27561;DHT22;15003;47.476;11.990;2022-08-03T14:16:01;37.40;28.20
27561;DHT22;15003;47.476;11.990;2022-08-03T14:18:27;37.40;28.30
27561;DHT22;15003;47.476;11.990;2022-08-03T14:20:53;37.40;28.10
27561;DHT22;15003;47.476;11.990;2022-08-03T14:23:19;37.40;28.70
27561;DHT22;15003;47.476;11.990;2022-08-03T14:25:45;37.30;28.30
27561;DHT22;15003;47.476;11.990;2022-08-03T14:28:11;37.30;28.80
27561;DHT22;15003;47.476;11.990;2022-08-03T14:30:37;37.20;29.20
27561;DHT22;15003;47.476;11.990;2022-08-03T14:33:02;37.20;29.70
27561;DHT22;15003;47.476;11.990;2022-08-03T14:35:28;37.20;30.00
27561;DHT22;15003;47.476;11.990;2022-08-03T14:37:54;37.10;29.90
27561;DHT22;15003;47.476;11.990;2022-08-03T14:40:20;37.10;29.70
27561;DHT22;15003;47.476;11.990;2022-08-03T14:42:47;37.10;29.70
27561;DHT22;15003;47.476;11.990;2022-08-03T14:45:13;37.00;30.00
27561;DHT22;15003;47.476;11.990;2022-08-03T14:47:39;36.90;30.20
27561;DHT22;15003;47.476;11.990;2022-08-03T14:50:05;36.90;30.50
27561;DHT22;15003;47.476;11.990;2022-08-03T14:52:32;36.80;30.40
27561;DHT22;15003;47.476;11.990;2022-08-03T14:54:58;36.80;30.70
27561;DHT22;15003;47.476;11.990;2022-08-03T14:57:24;36.80;30.90
27561;DHT22;15003;47.476;11.990;2022-08-03T14:59:51;36.70;30.80
27561;DHT22;15003;47.476;11.990;2022-08-03T15:02:17;36.70;31.00
27561;DHT22;15003;47.476;11.990;2022-08-03T15:04:43;36.70;31.50
27561;DHT22;15003;47.476;11.990;2022-08-03T15:07:09;36.70;31.40
27561;DHT22;15003;47.476;11.990;2022-08-03T15:09:35;36.60;30.90
27561;DHT22;15003;47.476;11.990;2022-08-03T15:12:01;36.60;30.70
27561;DHT22;15003;47.476;11.990;2022-08-03T15:14:26;36.60;30.90
27561;DHT22;15003;47.476;11.990;2022-08-03T15:16:52;36.50;30.80
27561;DHT22;15003;47.476;11.990;2022-08-03T15:19:18;36.50;30.80
27561;DHT22;15003;47.476;11.990;2022-08-03T15:21:44;36.40;30.70
27561;DHT22;15003;47.476;11.990;2022-08-03T15:24:09;36.40;30.70
27561;DHT22;15003;47.476;11.990;2022-08-03T15:26:35;36.30;30.80
27561;DHT22;15003;47.476;11.990;2022-08-03T15:29:01;36.30;31.20
27561;DHT22;15003;47.476;11.990;2022-08-03T15:31:26;36.30;31.40
27561;DHT22;15003;47.476;11.990;2022-08-03T15:33:52;36.20;31.10
27561;DHT22;15003;47.476;11.990;2022-08-03T15:36:19;36.20;31.10
27561;DHT22;15003;47.476;11.990;2022-08-03T15:38:45;36.10;30.90
27561;DHT22;15003;47.476;11.990;2022-08-03T15:41:12;36.10;30.70
27561;DHT22;15003;47.476;11.990;2022-08-03T15:43:38;36.00;31.00
27561;DHT22;15003;47.476;11.990;2022-08-03T15:46:05;36.00;31.50
27561;DHT22;15003;47.476;11.990;2022-08-03T15:48:30;36.00;32.70
27561;DHT22;15003;47.476;11.990;2022-08-03T15:50:56;36.00;32.00
27561;DHT22;15003;47.476;11.990;2022-08-03T15:53:22;36.00;32.30
27561;DHT22;15003;47.476;11.990;2022-08-03T15:55:48;36.00;32.20
27561;DHT22;15003;47.476;11.990;2022-08-03T15:58:14;36.00;32.40
27561;DHT22;15003;47.476;11.990;2022-08-03T16:00:40;36.00;32.10
27561;DHT22;15003;47.476;11.990;2022-08-03T16:03:07;36.00;32.10